Time;durP1;ratioP1;P1;durP2;ratioP2;P2;SDS_P1;SDS_P2;PMS_P1;PMS_P2;Temp;Humidity;BMP_temperature;BMP_pressure;BME280_temperature;BME280_humidity;BME280_pressure;Samples;Min_cycle;Max_cycle;Signal;HPM_P1;HPM_P2
2023/08/10 00:01:22;;;;;;;;;;;19.10;85.80;;;;;;5100743;28;19908;-75
2023/08/10 00:03:48;;;;;;;;;;;19.10;85.70;;;;;;5100074;28;20010;-74
2023/08/10 00:06:14;;;;;;;;;;;19.10;85.80;;;;;;5100062;28;19955;-74
2023/08/10 00:08:40;;;;;;;;;;;19.10;85.70;;;;;;5100327;28;19915;-74
2023/08/10 00:11:06;;;;;;;;;;;19.10;85.80;;;;;;5100186;28;20305;-74
2023/08/10 00:13:32;;;;;;;;;;;19.10;85.80;;;;;;5096396;28;19908;-74
2023/08/10 00:15:57;;;;;;;;;;;19.10;85.80;;;;;;5096670;28;19959;-73
2023/08/10 00:18:23;;;;;;;;;;;19.10;85.90;;;;;;5096054;28;19927;-75
2023/08/10 00:20:48;;;;;;;;;;;19.10;85.80;;;;;;5097383;28;19999;-75
2023/08/10 00:23:14;;;;;;;;;;;19.10;85.90;;;;;;5097863;28;19954;-75
2023/08/10 00:25:39;;;;;;;;;;;19.10;85.90;;;;;;5096891;28;19954;-75
2023/08/10 00:28:05;;;;;;;;;;;19.10;85.80;;;;;;5095308;28;19909;-75
2023/08/10 00:30:30;;;;;;;;;;;19.10;85.90;;;;;;5096887;28;19908;-73
2023/08/10 00:32:56;;;;;;;;;;;19.10;85.90;;;;;;5095553;28;20046;-75
2023/08/10 00:35:22;;;;;;;;;;;19.10;85.90;;;;;;5096801;28;19908;-75
2023/08/10 00:37:49;;;;;;;;;;;19.10;85.90;;;;;;5096352;28;19919;-75
2023/08/10 00:40:15;;;;;;;;;;;19.10;85.90;;;;;;5096594;28;19916;-74
2023/08/10 00:42:40;;;;;;;;;;;19.10;85.90;;;;;;5096956;28;19908;-74
2023/08/10 00:45:06;;;;;;;;;;;19.10;85.80;;;;;;5096233;28;19930;-74
2023/08/10 00:47:32;;;;;;;;;;;19.10;85.80;;;;;;5096277;28;19912;-74
2023/08/10 00:49:57;;;;;;;;;;;19.10;85.80;;;;;;5096388;28;19915;-73
2023/08/10 00:52:23;;;;;;;;;;;19.10;85.80;;;;;;5096425;28;19912;-74
2023/08/10 00:54:48;;;;;;;;;;;19.10;85.80;;;;;;5096381;28;19915;-74
2023/08/10 00:57:14;;;;;;;;;;;19.10;85.80;;;;;;5095891;28;20015;-74
2023/08/10 00:59:39;;;;;;;;;;;19.10;85.70;;;;;;5096550;28;19971;-75
2023/08/10 01:02:05;;;;;;;;;;;19.10;85.70;;;;;;5095909;28;19909;-75
2023/08/10 01:04:31;;;;;;;;;;;19.10;85.70;;;;;;5096160;28;20259;-74
2023/08/10 01:07:05;;;;;;;;;;;19.10;85.70;;;;;;5096113;28;19908;-75
2023/08/10 01:09:37;;;;;;;;;;;19.10;85.70;;;;;;5096026;28;19961;-74
2023/08/10 01:12:22;;;;;;;;;;;19.10;85.70;;;;;;5095913;28;20355;-74
2023/08/10 01:15:08;;;;;;;;;;;19.10;85.70;;;;;;5095705;28;19908;-74
2023/08/10 01:17:38;;;;;;;;;;;19.10;85.70;;;;;;5091517;28;19920;-74
2023/08/10 01:20:05;;;;;;;;;;;19.10;85.70;;;;;;5095631;28;19912;-75
2023/08/10 01:22:48;;;;;;;;;;;19.10;85.70;;;;;;5095430;28;20363;-75
2023/08/10 01:25:14;;;;;;;;;;;19.10;85.70;;;;;;5095757;28;19913;-74
2023/08/10 01:27:41;;;;;;;;;;;19.10;85.70;;;;;;5095446;28;19908;-74
2023/08/10 01:30:08;;;;;;;;;;;19.10;85.70;;;;;;5094445;28;19908;-74
2023/08/10 01:32:33;;;;;;;;;;;19.10;85.70;;;;;;5095666;28;19966;-74
2023/08/10 01:34:59;;;;;;;;;;;19.10;85.80;;;;;;5095572;28;19908;-75
2023/08/10 01:37:26;;;;;;;;;;;19.10;85.70;;;;;;5095434;28;19912;-74
2023/08/10 01:39:51;;;;;;;;;;;19.10;85.70;;;;;;5095263;28;20043;-75
2023/08/10 01:42:17;;;;;;;;;;;19.10;85.70;;;;;;5095472;28;19948;-74
2023/08/10 01:44:43;;;;;;;;;;;19.10;85.70;;;;;;5095383;28;19920;-74
2023/08/10 01:47:17;;;;;;;;;;;19.10;85.70;;;;;;5095106;28;19908;-74
2023/08/10 01:49:44;;;;;;;;;;;19.10;85.70;;;;;;5094908;28;19908;-74
2023/08/10 01:52:10;;;;;;;;;;;19.10;85.70;;;;;;5094956;28;20271;-74
2023/08/10 01:54:37;;;;;;;;;;;19.10;85.70;;;;;;5094935;28;19958;-74
2023/08/10 01:57:02;;;;;;;;;;;19.10;85.70;;;;;;5095081;28;19928;-74
2023/08/10 01:59:28;;;;;;;;;;;19.10;85.70;;;;;;5095084;28;19917;-75
2023/08/10 02:01:54;;;;;;;;;;;19.10;85.80;;;;;;5095124;28;19912;-75
2023/08/10 02:04:20;;;;;;;;;;;19.10;85.80;;;;;;5095007;28;19998;-74
2023/08/10 02:06:45;;;;;;;;;;;19.10;85.80;;;;;;5094684;28;20428;-73
2023/08/10 02:09:11;;;;;;;;;;;19.10;85.80;;;;;;5094890;28;19908;-74
2023/08/10 02:11:37;;;;;;;;;;;19.10;85.80;;;;;;5094582;28;19908;-74
2023/08/10 02:14:02;;;;;;;;;;;19.10;85.80;;;;;;5094902;28;19908;-74
2023/08/10 02:16:28;;;;;;;;;;;19.10;85.70;;;;;;5094783;28;19912;-74
2023/08/10 02:18:53;;;;;;;;;;;19.10;85.70;;;;;;5094447;28;19916;-75
2023/08/10 02:21:19;;;;;;;;;;;19.10;85.80;;;;;;5094836;28;20358;-74
2023/08/10 02:23:44;;;;;;;;;;;19.10;85.80;;;;;;5095543;28;19990;-75
2023/08/10 02:26:09;;;;;;;;;;;19.10;85.80;;;;;;5094745;28;20320;-74
2023/08/10 02:28:35;;;;;;;;;;;19.10;86.30;;;;;;5094587;28;19912;-74
2023/08/10 02:31:02;;;;;;;;;;;19.10;85.80;;;;;;5094600;28;19908;-74
2023/08/10 02:33:27;;;;;;;;;;;19.10;85.80;;;;;;5094503;28;19912;-74
2023/08/10 02:35:53;;;;;;;;;;;19.10;85.80;;;;;;5093892;28;19916;-74
2023/08/10 02:38:18;;;;;;;;;;;19.00;85.70;;;;;;5094222;28;20359;-74
2023/08/10 02:40:44;;;;;;;;;;;19.10;85.80;;;;;;5094439;28;19908;-74
2023/08/10 02:43:09;;;;;;;;;;;19.10;85.80;;;;;;5094414;28;19969;-74
2023/08/10 02:45:35;;;;;;;;;;;19.10;85.80;;;;;;5094285;28;19920;-75
2023/08/10 02:48:00;;;;;;;;;;;19.10;85.80;;;;;;5094088;28;19915;-72
2023/08/10 02:50:26;;;;;;;;;;;19.10;85.80;;;;;;5094040;28;19908;-74
2023/08/10 02:52:51;;;;;;;;;;;19.10;85.80;;;;;;5093908;28;20367;-74
2023/08/10 02:55:17;;;;;;;;;;;19.10;85.80;;;;;;5094032;28;19912;-74
2023/08/10 02:57:42;;;;;;;;;;;19.10;85.80;;;;;;5094153;28;19912;-74
2023/08/10 03:00:12;;;;;;;;;;;19.10;85.90;;;;;;5094187;28;20298;-74
2023/08/10 03:02:38;;;;;;;;;;;19.10;85.90;;;;;;5094098;28;19923;-74
2023/08/10 03:05:04;;;;;;;;;;;19.10;85.80;;;;;;5094111;28;20450;-74
2023/08/10 03:07:29;;;;;;;;;;;19.00;85.80;;;;;;5093841;28;19987;-74
2023/08/10 03:09:56;;;;;;;;;;;19.10;85.90;;;;;;5094057;28;19908;-75
2023/08/10 03:12:21;;;;;;;;;;;19.10;85.90;;;;;;5093737;28;19923;-75
2023/08/10 03:14:47;;;;;;;;;;;19.10;86.40;;;;;;5093674;28;19908;-74
2023/08/10 03:17:12;;;;;;;;;;;19.00;85.80;;;;;;5093595;28;20375;-74
2023/08/10 03:19:38;;;;;;;;;;;19.10;85.90;;;;;;5093976;28;20333;-75
2023/08/10 03:22:04;;;;;;;;;;;19.00;85.80;;;;;;5093670;28;20355;-74
2023/08/10 03:24:29;;;;;;;;;;;19.00;85.80;;;;;;5093932;28;19913;-74
2023/08/10 03:26:55;;;;;;;;;;;19.00;85.80;;;;;;5093872;28;19908;-74
2023/08/10 03:29:20;;;;;;;;;;;19.00;86.10;;;;;;5093862;28;20365;-74
2023/08/10 03:31:46;;;;;;;;;;;19.00;85.80;;;;;;5093607;28;19998;-75
2023/08/10 03:34:11;;;;;;;;;;;19.00;85.80;;;;;;5093540;28;19909;-75
2023/08/10 03:36:37;;;;;;;;;;;19.00;85.80;;;;;;5093659;28;19937;-74
2023/08/10 03:39:02;;;;;;;;;;;19.00;86.40;;;;;;5093468;28;19912;-74
2023/08/10 03:41:28;;;;;;;;;;;19.00;85.80;;;;;;5093697;28;19908;-75
2023/08/10 03:43:53;;;;;;;;;;;19.00;85.80;;;;;;5093791;28;19950;-75
2023/08/10 03:46:19;;;;;;;;;;;19.10;85.90;;;;;;5093910;28;19920;-74
2023/08/10 03:48:44;;;;;;;;;;;19.00;85.80;;;;;;5096519;28;19954;-74
2023/08/10 03:51:10;;;;;;;;;;;19.00;85.80;;;;;;5097197;28;19939;-73
2023/08/10 03:53:35;;;;;;;;;;;19.10;85.90;;;;;;5097441;28;20322;-74
2023/08/10 03:56:01;;;;;;;;;;;19.10;85.90;;;;;;5097087;28;19916;-71
2023/08/10 03:58:26;;;;;;;;;;;19.00;85.80;;;;;;5097434;28;19912;-74
2023/08/10 04:00:52;;;;;;;;;;;19.00;85.80;;;;;;5097392;28;19987;-74
2023/08/10 04:03:17;;;;;;;;;;;19.10;85.90;;;;;;5097048;28;19909;-75
2023/08/10 04:05:43;;;;;;;;;;;19.00;85.90;;;;;;5097295;28;20383;-74
2023/08/10 04:08:09;;;;;;;;;;;19.00;85.80;;;;;;5097174;28;19915;-74
2023/08/10 04:10:34;;;;;;;;;;;19.00;85.80;;;;;;5097238;28;19908;-72
2023/08/10 04:13:00;;;;;;;;;;;19.00;85.80;;;;;;5095804;28;19908;-74
2023/08/10 04:15:25;;;;;;;;;;;19.10;85.90;;;;;;5096788;28;19908;-74
2023/08/10 04:17:51;;;;;;;;;;;19.00;85.80;;;;;;5096560;28;19973;-74
2023/08/10 04:20:17;;;;;;;;;;;19.00;86.30;;;;;;5097197;28;19947;-74
2023/08/10 04:22:42;;;;;;;;;;;19.10;85.90;;;;;;5096078;28;20002;-74
2023/08/10 04:25:08;;;;;;;;;;;19.00;85.80;;;;;;5097781;28;19954;-74
2023/08/10 04:27:33;;;;;;;;;;;19.00;85.90;;;;;;5096551;28;19912;-75
2023/08/10 04:29:59;;;;;;;;;;;19.00;85.90;;;;;;5096888;28;19908;-74
2023/08/10 04:32:25;;;;;;;;;;;19.00;85.90;;;;;;5096580;28;20034;-74
2023/08/10 04:34:51;;;;;;;;;;;19.00;85.90;;;;;;5096342;28;19949;-74
2023/08/10 04:37:17;;;;;;;;;;;19.00;85.90;;;;;;5096288;28;20315;-74
2023/08/10 04:39:43;;;;;;;;;;;19.10;86.00;;;;;;5096370;28;19995;-74
2023/08/10 04:42:08;;;;;;;;;;;19.00;85.90;;;;;;5096557;28;19908;-73
2023/08/10 04:44:34;;;;;;;;;;;19.00;85.90;;;;;;5096105;28;20262;-72
2023/08/10 04:46:59;;;;;;;;;;;19.10;86.00;;;;;;5096197;28;19915;-74
2023/08/10 04:49:28;;;;;;;;;;;19.00;85.90;;;;;;5095633;28;21551;-73
2023/08/10 04:51:54;;;;;;;;;;;19.00;85.90;;;;;;5096313;28;20392;-73
2023/08/10 04:54:20;;;;;;;;;;;19.00;86.00;;;;;;5096247;28;19977;-73
2023/08/10 04:56:46;;;;;;;;;;;19.00;85.90;;;;;;5096123;28;19912;-76
2023/08/10 04:59:11;;;;;;;;;;;19.00;85.90;;;;;;5095588;28;20259;-73
2023/08/10 05:01:38;;;;;;;;;;;19.00;85.80;;;;;;5096023;28;19934;-73
2023/08/10 05:04:04;;;;;;;;;;;19.00;85.90;;;;;;5096100;28;19912;-73
2023/08/10 05:06:30;;;;;;;;;;;19.00;85.80;;;;;;5095712;28;19909;-74
2023/08/10 05:08:56;;;;;;;;;;;19.00;85.90;;;;;;5095946;28;19915;-73
2023/08/10 05:11:22;;;;;;;;;;;19.00;86.40;;;;;;5077892;28;19908;-73
2023/08/10 05:13:47;;;;;;;;;;;19.00;85.90;;;;;;5095949;28;19931;-73
2023/08/10 05:16:13;;;;;;;;;;;19.00;85.90;;;;;;5095694;28;20359;-74
2023/08/10 05:18:39;;;;;;;;;;;19.00;85.90;;;;;;5096118;28;19993;-74
2023/08/10 05:21:05;;;;;;;;;;;19.00;85.90;;;;;;5095772;28;19908;-74
2023/08/10 05:23:30;;;;;;;;;;;19.00;85.90;;;;;;5094500;28;19916;-74
2023/08/10 05:25:56;;;;;;;;;;;19.00;85.90;;;;;;5095582;28;19951;-74
2023/08/10 05:28:22;;;;;;;;;;;19.00;85.90;;;;;;5095581;28;20270;-74
2023/08/10 05:30:47;;;;;;;;;;;19.00;85.90;;;;;;5095644;28;20236;-74
2023/08/10 05:33:13;;;;;;;;;;;19.00;85.90;;;;;;5095346;28;19919;-75
2023/08/10 05:35:39;;;;;;;;;;;19.00;85.90;;;;;;5095397;28;19914;-74
2023/08/10 05:38:05;;;;;;;;;;;19.00;85.90;;;;;;5095247;28;19959;-73
2023/08/10 05:40:30;;;;;;;;;;;19.00;85.90;;;;;;5095007;28;19991;-75
2023/08/10 05:42:56;;;;;;;;;;;19.00;86.00;;;;;;5095310;28;20329;-74
2023/08/10 05:45:21;;;;;;;;;;;19.00;86.00;;;;;;5095073;28;19920;-74
2023/08/10 05:47:49;;;;;;;;;;;19.00;86.00;;;;;;5094782;28;19959;-74
2023/08/10 05:50:14;;;;;;;;;;;19.00;86.00;;;;;;5095108;28;20030;-74
2023/08/10 05:52:40;;;;;;;;;;;19.00;86.00;;;;;;5094749;28;20377;-74
2023/08/10 05:55:06;;;;;;;;;;;19.00;86.00;;;;;;5095060;28;19931;-73
2023/08/10 05:57:31;;;;;;;;;;;19.00;86.00;;;;;;5094813;28;20000;-74
2023/08/10 05:59:57;;;;;;;;;;;19.00;86.00;;;;;;5094732;28;19912;-74
2023/08/10 06:02:22;;;;;;;;;;;19.00;86.00;;;;;;5094713;28;19954;-74
2023/08/10 06:04:49;;;;;;;;;;;19.00;86.00;;;;;;5094938;28;20427;-75
2023/08/10 06:07:14;;;;;;;;;;;19.00;86.00;;;;;;5094846;28;19935;-74
2023/08/10 06:09:40;;;;;;;;;;;19.00;86.00;;;;;;5094227;28;19908;-74
2023/08/10 06:12:06;;;;;;;;;;;19.00;86.00;;;;;;5094625;28;19962;-75
2023/08/10 06:14:31;;;;;;;;;;;19.00;86.00;;;;;;5094826;28;19908;-74
2023/08/10 06:16:57;;;;;;;;;;;19.00;86.00;;;;;;5094444;28;19944;-74
2023/08/10 06:19:23;;;;;;;;;;;19.00;86.00;;;;;;5094213;28;19919;-75
2023/08/10 06:21:50;;;;;;;;;;;19.00;86.00;;;;;;5094254;28;19909;-74
2023/08/10 06:24:16;;;;;;;;;;;19.00;86.00;;;;;;5094787;28;19908;-74
2023/08/10 06:26:42;;;;;;;;;;;19.00;86.00;;;;;;5095237;28;20385;-75
2023/08/10 06:29:07;;;;;;;;;;;19.00;86.00;;;;;;5094880;28;19908;-74
2023/08/10 06:31:33;;;;;;;;;;;19.00;86.00;;;;;;5094447;28;19912;-74
2023/08/10 06:33:59;;;;;;;;;;;19.00;86.00;;;;;;5094444;28;19996;-74
2023/08/10 06:36:25;;;;;;;;;;;19.00;86.00;;;;;;5093942;28;19938;-74
2023/08/10 06:38:50;;;;;;;;;;;19.00;86.00;;;;;;5093971;28;20383;-74
2023/08/10 06:41:16;;;;;;;;;;;19.00;86.00;;;;;;5094393;28;20016;-74
2023/08/10 06:43:41;;;;;;;;;;;19.00;86.00;;;;;;5094024;28;19908;-74
2023/08/10 06:46:07;;;;;;;;;;;19.00;86.00;;;;;;5093890;28;19927;-74
2023/08/10 06:48:32;;;;;;;;;;;19.00;86.00;;;;;;5094170;28;19908;-74
2023/08/10 06:50:58;;;;;;;;;;;19.00;86.00;;;;;;5094149;28;19908;-74
2023/08/10 06:53:23;;;;;;;;;;;19.00;86.00;;;;;;5093795;28;19995;-74
2023/08/10 06:55:50;;;;;;;;;;;19.00;86.00;;;;;;5093958;28;19958;-74
2023/08/10 06:58:18;;;;;;;;;;;19.00;86.00;;;;;;5093598;28;19912;-74
2023/08/10 07:00:44;;;;;;;;;;;19.00;86.00;;;;;;5093907;28;19935;-74
2023/08/10 07:03:10;;;;;;;;;;;19.00;86.00;;;;;;5094075;28;19909;-74
2023/08/10 07:05:37;;;;;;;;;;;19.00;86.00;;;;;;5094086;28;19912;-73
2023/08/10 07:08:03;;;;;;;;;;;19.00;86.00;;;;;;5094014;28;19915;-74
2023/08/10 07:10:29;;;;;;;;;;;19.00;86.00;;;;;;5094235;28;19909;-74
2023/08/10 07:12:54;;;;;;;;;;;19.00;86.00;;;;;;5093859;28;19915;-74
2023/08/10 07:15:20;;;;;;;;;;;19.00;86.00;;;;;;5093725;28;19974;-73
2023/08/10 07:17:45;;;;;;;;;;;19.00;86.00;;;;;;5093829;28;19970;-74
2023/08/10 07:20:12;;;;;;;;;;;19.00;86.00;;;;;;5093488;28;19912;-73
2023/08/10 07:22:38;;;;;;;;;;;19.00;86.00;;;;;;5097097;28;19914;-74
2023/08/10 07:25:05;;;;;;;;;;;19.00;86.00;;;;;;5097706;28;20007;-74
2023/08/10 07:27:32;;;;;;;;;;;19.00;86.00;;;;;;5097388;28;20323;-73
2023/08/10 07:29:57;;;;;;;;;;;19.00;86.00;;;;;;5098041;28;19908;-74
2023/08/10 07:32:23;;;;;;;;;;;19.00;86.00;;;;;;5096369;28;19916;-74
2023/08/10 07:34:48;;;;;;;;;;;19.00;86.00;;;;;;5098010;28;19909;-74
2023/08/10 07:37:14;;;;;;;;;;;19.00;86.00;;;;;;5097390;28;19916;-75
2023/08/10 07:39:40;;;;;;;;;;;19.00;86.00;;;;;;5097419;28;19919;-74
2023/08/10 07:42:06;;;;;;;;;;;19.00;86.00;;;;;;5097719;28;19908;-74
2023/08/10 07:44:31;;;;;;;;;;;19.00;86.00;;;;;;5097675;28;19920;-74
2023/08/10 07:46:57;;;;;;;;;;;19.00;86.00;;;;;;5097160;28;19908;-74
2023/08/10 07:49:22;;;;;;;;;;;19.00;86.00;;;;;;5097126;28;20307;-75
2023/08/10 07:51:48;;;;;;;;;;;19.00;86.00;;;;;;5097326;28;19917;-74
2023/08/10 07:54:14;;;;;;;;;;;19.00;86.00;;;;;;5096169;28;19944;-74
2023/08/10 07:56:39;;;;;;;;;;;19.00;86.10;;;;;;5097199;28;19974;-74
2023/08/10 07:59:05;;;;;;;;;;;19.00;86.10;;;;;;5097378;28;20326;-74
2023/08/10 08:01:30;;;;;;;;;;;19.00;86.10;;;;;;5096822;28;19908;-73
2023/08/10 08:03:56;;;;;;;;;;;19.00;86.10;;;;;;5096965;28;19908;-74
2023/08/10 08:06:21;;;;;;;;;;;19.00;86.10;;;;;;5096744;28;19908;-75
2023/08/10 08:08:47;;;;;;;;;;;19.00;86.10;;;;;;5097405;28;19908;-75
2023/08/10 08:11:12;;;;;;;;;;;19.00;86.10;;;;;;5096819;28;19912;-75
2023/08/10 08:13:38;;;;;;;;;;;19.00;86.10;;;;;;5096797;28;19915;-75
2023/08/10 08:16:03;;;;;;;;;;;19.00;86.10;;;;;;5096466;28;20003;-75
2023/08/10 08:18:45;;;;;;;;;;;19.00;86.10;;;;;;5096736;28;20367;-75
2023/08/10 08:21:12;;;;;;;;;;;19.00;86.10;;;;;;5096654;28;19909;-75
2023/08/10 08:23:37;;;;;;;;;;;19.00;86.10;;;;;;5096841;28;19958;-73
2023/08/10 08:26:03;;;;;;;;;;;19.00;86.10;;;;;;5097355;28;20355;-75
2023/08/10 08:28:29;;;;;;;;;;;19.00;86.10;;;;;;5097107;28;19955;-74
2023/08/10 08:30:54;;;;;;;;;;;19.00;86.10;;;;;;5096771;28;20335;-75
2023/08/10 08:33:20;;;;;;;;;;;19.00;86.10;;;;;;5095851;28;19966;-74
2023/08/10 08:35:46;;;;;;;;;;;19.00;86.10;;;;;;5096585;28;19915;-75
2023/08/10 08:38:13;;;;;;;;;;;19.00;86.10;;;;;;5096650;28;19962;-75
2023/08/10 08:40:39;;;;;;;;;;;19.00;86.10;;;;;;5096437;28;19908;-73
2023/08/10 08:43:04;;;;;;;;;;;19.00;86.10;;;;;;5096322;28;19912;-72
2023/08/10 08:45:30;;;;;;;;;;;19.00;86.20;;;;;;5095857;28;19920;-73
2023/08/10 08:47:56;;;;;;;;;;;19.00;86.20;;;;;;5095936;28;19915;-74
2023/08/10 08:50:22;;;;;;;;;;;19.00;86.10;;;;;;5096082;28;19908;-73
2023/08/10 08:52:48;;;;;;;;;;;19.00;86.10;;;;;;5096254;28;19916;-74
2023/08/10 08:55:14;;;;;;;;;;;19.00;86.10;;;;;;5095794;28;19912;-75
2023/08/10 08:57:39;;;;;;;;;;;19.00;86.10;;;;;;5096044;28;19912;-72
2023/08/10 09:00:06;;;;;;;;;;;19.00;86.20;;;;;;5095565;28;19913;-74
2023/08/10 09:02:32;;;;;;;;;;;19.00;86.20;;;;;;5095529;28;20408;-73
2023/08/10 09:04:59;;;;;;;;;;;19.00;86.20;;;;;;5096026;28;19908;-73
2023/08/10 09:07:27;;;;;;;;;;;19.00;86.70;;;;;;5095690;28;19908;-74
2023/08/10 09:09:56;;;;;;;;;;;19.00;86.20;;;;;;5095513;28;20426;-74
2023/08/10 09:12:28;;;;;;;;;;;19.00;86.20;;;;;;5095970;28;19915;-75
2023/08/10 09:15:10;;;;;;;;;;;19.00;86.70;;;;;;5095550;28;19947;-74
2023/08/10 09:17:37;;;;;;;;;;;19.00;86.20;;;;;;5094149;28;19959;-75
2023/08/10 09:20:08;;;;;;;;;;;19.00;86.20;;;;;;5095665;28;19919;-74
2023/08/10 09:22:34;;;;;;;;;;;19.00;86.20;;;;;;5096123;28;19994;-73
2023/08/10 09:25:00;;;;;;;;;;;19.00;86.20;;;;;;5095625;28;19995;-75
2023/08/10 09:27:27;;;;;;;;;;;19.00;86.20;;;;;;5095548;28;19946;-74
2023/08/10 09:29:59;;;;;;;;;;;19.00;86.20;;;;;;5095441;28;19953;-75
2023/08/10 09:32:25;;;;;;;;;;;19.00;86.20;;;;;;5095563;28;19908;-74
2023/08/10 09:34:51;;;;;;;;;;;19.00;86.20;;;;;;5095537;28;19908;-72
2023/08/10 09:37:17;;;;;;;;;;;19.00;86.20;;;;;;5095370;28;19915;-74
2023/08/10 09:39:43;;;;;;;;;;;19.00;86.20;;;;;;5095052;28;19920;-75
2023/08/10 09:42:08;;;;;;;;;;;19.00;86.20;;;;;;5095284;28;19961;-74
2023/08/10 09:44:44;;;;;;;;;;;19.00;86.20;;;;;;5095192;28;19956;-74
2023/08/10 09:47:10;;;;;;;;;;;19.00;86.20;;;;;;5094704;28;19915;-72
2023/08/10 09:49:36;;;;;;;;;;;18.90;86.10;;;;;;5094986;28;19912;-73
2023/08/10 09:52:02;;;;;;;;;;;19.00;86.20;;;;;;5095081;28;20253;-75
2023/08/10 09:54:28;;;;;;;;;;;19.00;86.20;;;;;;5095119;28;20346;-74
2023/08/10 09:56:54;;;;;;;;;;;19.00;86.20;;;;;;5094626;28;19916;-74
2023/08/10 09:59:19;;;;;;;;;;;19.00;86.20;;;;;;5094851;28;19915;-74
2023/08/10 10:01:45;;;;;;;;;;;19.00;86.20;;;;;;5094776;28;19915;-73
2023/08/10 10:04:11;;;;;;;;;;;19.00;86.20;;;;;;5095010;28;19908;-75
2023/08/10 10:06:37;;;;;;;;;;;19.00;86.20;;;;;;5094545;28;19908;-73
2023/08/10 10:09:03;;;;;;;;;;;19.00;86.20;;;;;;5094575;28;20371;-73
2023/08/10 10:11:30;;;;;;;;;;;19.00;86.20;;;;;;5094480;28;19960;-73
2023/08/10 10:13:56;;;;;;;;;;;18.90;86.20;;;;;;5094354;28;19908;-74
2023/08/10 10:16:22;;;;;;;;;;;19.00;86.20;;;;;;5094249;28;20398;-73
2023/08/10 10:18:48;;;;;;;;;;;19.00;86.20;;;;;;5094752;28;19944;-73
2023/08/10 10:21:14;;;;;;;;;;;19.00;86.20;;;;;;5094639;28;19912;-73
2023/08/10 10:23:40;;;;;;;;;;;18.90;86.20;;;;;;5094944;28;19915;-74
2023/08/10 10:26:10;;;;;;;;;;;19.00;86.20;;;;;;5094439;28;20290;-73
2023/08/10 10:28:35;;;;;;;;;;;19.00;86.20;;;;;;5094196;28;19973;-73
2023/08/10 10:31:04;;;;;;;;;;;19.00;86.20;;;;;;5094299;28;19955;-72
2023/08/10 10:33:29;;;;;;;;;;;19.00;86.20;;;;;;5094027;28;19931;-73
2023/08/10 10:36:09;;;;;;;;;;;19.00;86.20;;;;;;5094108;28;19908;-74
2023/08/10 10:38:34;;;;;;;;;;;19.00;86.20;;;;;;5093899;28;20287;-74
2023/08/10 10:41:12;;;;;;;;;;;19.00;86.30;;;;;;5093975;28;19923;-74
2023/08/10 10:43:38;;;;;;;;;;;19.00;86.30;;;;;;5093897;28;20388;-74
2023/08/10 10:46:03;;;;;;;;;;;19.00;86.20;;;;;;5093430;28;19992;-74
2023/08/10 10:48:33;;;;;;;;;;;19.00;86.30;;;;;;5094299;28;20268;-74
2023/08/10 10:51:01;;;;;;;;;;;19.00;86.20;;;;;;5093612;28;19914;-72
2023/08/10 10:53:27;;;;;;;;;;;19.00;86.30;;;;;;5093703;28;20321;-74
2023/08/10 10:55:53;;;;;;;;;;;19.00;86.20;;;;;;5093282;28;19908;-73
2023/08/10 10:58:19;;;;;;;;;;;19.00;86.30;;;;;;5094144;28;20441;-74
2023/08/10 11:00:44;;;;;;;;;;;19.00;86.30;;;;;;5093536;28;19919;-74
2023/08/10 11:03:10;;;;;;;;;;;19.00;86.20;;;;;;5093752;28;19962;-74
2023/08/10 11:05:36;;;;;;;;;;;19.00;86.30;;;;;;5093845;28;19908;-74
2023/08/10 11:08:03;;;;;;;;;;;19.00;86.30;;;;;;5093674;28;20484;-75
2023/08/10 11:10:30;;;;;;;;;;;19.00;86.30;;;;;;5093823;28;20011;-75
2023/08/10 11:12:55;;;;;;;;;;;19.00;86.30;;;;;;5093842;28;19908;-74
2023/08/10 11:15:21;;;;;;;;;;;19.00;86.30;;;;;;5093755;28;19942;-75
2023/08/10 11:17:48;;;;;;;;;;;19.00;86.30;;;;;;5093602;28;19912;-75
2023/08/10 11:20:17;;;;;;;;;;;19.00;86.30;;;;;;5093804;28;19951;-73
2023/08/10 11:22:43;;;;;;;;;;;19.00;86.30;;;;;;5093778;28;20005;-72
2023/08/10 11:25:12;;;;;;;;;;;19.00;86.30;;;;;;5093738;28;19912;-75
2023/08/10 11:27:40;;;;;;;;;;;19.00;86.30;;;;;;5093186;28;19962;-75
2023/08/10 11:30:06;;;;;;;;;;;19.00;86.30;;;;;;5093712;28;20007;-75
2023/08/10 11:32:31;;;;;;;;;;;19.00;86.20;;;;;;5093324;28;20402;-73
2023/08/10 11:34:57;;;;;;;;;;;19.00;86.30;;;;;;5093612;28;19908;-74
2023/08/10 11:37:33;;;;;;;;;;;19.00;86.20;;;;;;5093749;28;19962;-74
2023/08/10 11:40:11;;;;;;;;;;;19.00;86.30;;;;;;5093007;28;20350;-74
2023/08/10 11:42:37;;;;;;;;;;;19.00;86.20;;;;;;5093072;28;19915;-73
2023/08/10 11:45:07;;;;;;;;;;;19.00;86.80;;;;;;5093025;28;20268;-74
2023/08/10 11:47:42;;;;;;;;;;;19.00;86.20;;;;;;5093469;28;19962;-74
2023/08/10 11:50:09;;;;;;;;;;;19.00;86.30;;;;;;5093546;28;19912;-74
2023/08/10 11:52:39;;;;;;;;;;;19.00;86.30;;;;;;5093224;28;19912;-74
2023/08/10 11:55:16;;;;;;;;;;;19.00;86.20;;;;;;5092031;28;19912;-74
2023/08/10 11:57:44;;;;;;;;;;;19.00;86.20;;;;;;5092914;28;19916;-74
2023/08/10 12:00:21;;;;;;;;;;;19.00;86.30;;;;;;5093668;28;20247;-74
2023/08/10 12:02:57;;;;;;;;;;;19.00;86.20;;;;;;5093321;28;19915;-74
2023/08/10 12:05:35;;;;;;;;;;;19.00;86.20;;;;;;5093474;28;19919;-74
2023/08/10 12:08:01;;;;;;;;;;;19.00;86.20;;;;;;5093633;28;20359;-74
2023/08/10 12:10:32;;;;;;;;;;;19.00;86.20;;;;;;5097070;28;19943;-74
2023/08/10 12:12:58;;;;;;;;;;;19.00;86.20;;;;;;5096584;28;19908;-74
2023/08/10 12:15:23;;;;;;;;;;;19.00;86.20;;;;;;5096620;28;19908;-74
2023/08/10 12:17:49;;;;;;;;;;;19.00;86.80;;;;;;5096639;28;20358;-74
2023/08/10 12:20:15;;;;;;;;;;;19.00;86.20;;;;;;5096790;28;19912;-75
2023/08/10 12:22:41;;;;;;;;;;;19.00;86.20;;;;;;5096759;28;20370;-75
2023/08/10 12:25:06;;;;;;;;;;;19.00;86.20;;;;;;5096871;28;19912;-75
2023/08/10 12:27:32;;;;;;;;;;;19.00;86.30;;;;;;5096818;28;19912;-74
2023/08/10 12:29:57;;;;;;;;;;;19.00;86.20;;;;;;5095935;28;19908;-75
2023/08/10 12:32:23;;;;;;;;;;;19.00;86.20;;;;;;5096167;28;20093;-74
2023/08/10 12:34:48;;;;;;;;;;;19.00;86.20;;;;;;5096593;28;19908;-74
2023/08/10 12:37:14;;;;;;;;;;;19.00;86.20;;;;;;5096136;28;19923;-74
2023/08/10 12:39:39;;;;;;;;;;;19.00;86.20;;;;;;5096559;28;19912;-74
2023/08/10 12:42:05;;;;;;;;;;;19.00;86.20;;;;;;5095534;28;19959;-74
2023/08/10 12:44:30;;;;;;;;;;;19.00;86.20;;;;;;5096244;28;19927;-74
2023/08/10 12:46:57;;;;;;;;;;;19.00;86.20;;;;;;5096344;28;19912;-74
2023/08/10 12:49:23;;;;;;;;;;;19.00;86.30;;;;;;5096358;28;19933;-74
2023/08/10 12:51:48;;;;;;;;;;;19.00;86.30;;;;;;5096440;28;20418;-74
2023/08/10 12:54:14;;;;;;;;;;;19.00;86.20;;;;;;5095803;28;19912;-73
2023/08/10 12:56:39;;;;;;;;;;;19.00;86.20;;;;;;5095807;28;19912;-74
2023/08/10 12:59:05;;;;;;;;;;;19.00;86.20;;;;;;5095909;28;19920;-75
2023/08/10 13:01:32;;;;;;;;;;;19.00;86.20;;;;;;5096125;28;19915;-74
2023/08/10 13:03:58;;;;;;;;;;;19.00;86.20;;;;;;5095730;28;19909;-75
2023/08/10 13:06:24;;;;;;;;;;;19.00;86.20;;;;;;5095889;28;19919;-74
2023/08/10 13:08:50;;;;;;;;;;;19.00;86.20;;;;;;5095541;28;19919;-74
2023/08/10 13:11:16;;;;;;;;;;;19.00;86.20;;;;;;5095981;28;19951;-74
2023/08/10 13:13:41;;;;;;;;;;;19.00;86.20;;;;;;5095452;28;19915;-74
2023/08/10 13:16:07;;;;;;;;;;;19.00;86.20;;;;;;5095595;28;20322;-74
2023/08/10 13:18:32;;;;;;;;;;;19.00;86.20;;;;;;5095619;28;19912;-75
2023/08/10 13:20:58;;;;;;;;;;;19.00;86.20;;;;;;5095326;28;19908;-74
2023/08/10 13:23:23;;;;;;;;;;;19.00;86.20;;;;;;5095377;28;20251;-74
2023/08/10 13:25:49;;;;;;;;;;;19.00;86.20;;;;;;5095114;28;19908;-74
2023/08/10 13:28:15;;;;;;;;;;;19.00;86.20;;;;;;5095021;28;19918;-70
2023/08/10 13:30:40;;;;;;;;;;;19.00;86.20;;;;;;5095111;28;20355;-74
2023/08/10 13:33:05;;;;;;;;;;;19.00;86.20;;;;;;5095273;28;19914;-75
2023/08/10 13:35:31;;;;;;;;;;;19.00;86.20;;;;;;5094954;28;20011;-75
2023/08/10 13:37:56;;;;;;;;;;;19.00;86.20;;;;;;5094946;28;20351;-75
2023/08/10 13:40:22;;;;;;;;;;;19.00;86.20;;;;;;5094672;28;19959;-74
2023/08/10 13:42:48;;;;;;;;;;;19.00;86.20;;;;;;5095233;28;19912;-74
2023/08/10 13:45:14;;;;;;;;;;;19.00;86.20;;;;;;5093789;28;19924;-74
2023/08/10 13:47:39;;;;;;;;;;;19.00;86.20;;;;;;5094700;28;19969;-75
2023/08/10 13:50:06;;;;;;;;;;;19.00;86.20;;;;;;5094873;28;19959;-75
2023/08/10 13:52:31;;;;;;;;;;;19.00;86.20;;;;;;5095041;28;19948;-74
2023/08/10 13:54:58;;;;;;;;;;;19.00;86.20;;;;;;5094714;28;19909;-75
2023/08/10 13:57:23;;;;;;;;;;;19.00;86.20;;;;;;5094253;28;19919;-74
2023/08/10 13:59:49;;;;;;;;;;;19.00;86.20;;;;;;5094841;28;19913;-75
2023/08/10 14:02:15;;;;;;;;;;;19.00;86.20;;;;;;5094376;28;19908;-75
2023/08/10 14:04:40;;;;;;;;;;;19.00;86.20;;;;;;5094500;28;19908;-74
2023/08/10 14:07:06;;;;;;;;;;;19.00;86.20;;;;;;5094534;28;19915;-75
2023/08/10 14:09:31;;;;;;;;;;;19.00;86.20;;;;;;5094345;28;19908;-75
2023/08/10 14:11:57;;;;;;;;;;;19.00;86.20;;;;;;5094703;28;19915;-75